Time;durP1;ratioP1;P1;durP2;ratioP2;P2;SDS_P1;SDS_P2;PMS_P1;PMS_P2;Temp;Humidity;BMP_temperature;BMP_pressure;BME280_temperature;BME280_humidity;BME280_pressure;Samples;Min_cycle;Max_cycle;Signal;HPM_P1;HPM_P2
2021/05/16 00:01:10;;;;;;;1.80;1.50;;;;;;;;;;5053075;28;20029;-74
2021/05/16 00:03:37;;;;;;;1.45;1.35;;;;;;;;;;5053199;28;20033;-75
2021/05/16 00:06:03;;;;;;;6.13;1.33;;;;;;;;;;5052073;28;20037;-74
2021/05/16 00:08:28;;;;;;;2.03;1.45;;;;;;;;;;5052586;28;20091;-75
2021/05/16 00:10:54;;;;;;;5.82;1.70;;;;;;;;;;5053175;28;20037;-75
2021/05/16 00:13:19;;;;;;;1.75;1.58;;;;;;;;;;5053034;28;20067;-75
2021/05/16 00:15:45;;;;;;;2.08;1.70;;;;;;;;;;5053011;28;20490;-75
2021/05/16 00:18:10;;;;;;;1.55;1.38;;;;;;;;;;5052848;28;20047;-75
2021/05/16 00:20:37;;;;;;;2.08;1.27;;;;;;;;;;5034669;28;20045;-75
2021/05/16 00:23:03;;;;;;;3.47;1.50;;;;;;;;;;5052891;28;20032;-75
2021/05/16 00:25:33;;;;;;;6.65;1.60;;;;;;;;;;5035086;28;20048;-74
2021/05/16 00:27:58;;;;;;;4.95;1.55;;;;;;;;;;5052820;28;20037;-75
2021/05/16 00:30:26;;;;;;;3.00;1.70;;;;;;;;;;5054265;28;20037;-75
2021/05/16 00:32:54;;;;;;;3.63;1.60;;;;;;;;;;5056475;28;20051;-74
2021/05/16 00:35:21;;;;;;;2.75;1.80;;;;;;;;;;5038186;28;20094;-75
2021/05/16 00:37:47;;;;;;;2.30;1.70;;;;;;;;;;5056820;28;20041;-75
2021/05/16 00:40:13;;;;;;;3.72;1.90;;;;;;;;;;5056644;28;20502;-75
2021/05/16 00:42:39;;;;;;;3.25;1.58;;;;;;;;;;5056623;28;20043;-75
2021/05/16 00:45:16;;;;;;;2.45;1.55;;;;;;;;;;5056668;28;20040;-75
2021/05/16 00:47:50;;;;;;;2.95;1.90;;;;;;;;;;5056258;28;20032;-74
2021/05/16 00:50:17;;;;;;;6.93;2.10;;;;;;;;;;5056138;28;20033;-74
2021/05/16 00:52:43;;;;;;;3.63;2.00;;;;;;;;;;5055620;28;20037;-75
2021/05/16 00:55:11;;;;;;;2.92;1.85;;;;;;;;;;5038543;28;20033;-75
2021/05/16 00:57:39;;;;;;;5.63;2.00;;;;;;;;;;5038349;28;20029;-75
2021/05/16 01:00:07;;;;;;;1.98;1.77;;;;;;;;;;5056177;28;20550;-74
2021/05/16 01:02:32;;;;;;;5.75;2.05;;;;;;;;;;5038329;28;20455;-75
2021/05/16 01:04:58;;;;;;;4.93;2.47;;;;;;;;;;5056358;28;20056;-75
2021/05/16 01:07:24;;;;;;;5.05;2.03;;;;;;;;;;5055340;28;20059;-74
2021/05/16 01:09:49;;;;;;;3.40;1.88;;;;;;;;;;5038216;28;20025;-75
2021/05/16 01:12:15;;;;;;;3.78;2.10;;;;;;;;;;5055815;28;20028;-74
2021/05/16 01:14:44;;;;;;;2.90;1.80;;;;;;;;;;5055991;28;20037;-75
2021/05/16 01:17:11;;;;;;;5.40;1.85;;;;;;;;;;5056083;28;20526;-75
2021/05/16 01:19:38;;;;;;;7.03;1.75;;;;;;;;;;5038185;28;20035;-74
2021/05/16 01:22:06;;;;;;;10.70;2.17;;;;;;;;;;5037423;28;20037;-75
2021/05/16 01:24:33;;;;;;;3.88;2.08;;;;;;;;;;5034364;28;20484;-74
2021/05/16 01:27:02;;;;;;;6.63;2.00;;;;;;;;;;5035572;28;20033;-74
2021/05/16 01:29:28;;;;;;;7.00;2.05;;;;;;;;;;5035651;28;20116;-74
2021/05/16 01:31:55;;;;;;;5.55;1.70;;;;;;;;;;5035701;28;20026;-74
2021/05/16 01:34:22;;;;;;;3.78;1.85;;;;;;;;;;5015848;28;20044;-75
2021/05/16 01:36:48;;;;;;;1.92;1.58;;;;;;;;;;5015706;28;20038;-74
2021/05/16 01:39:14;;;;;;;1.95;1.60;;;;;;;;;;5014176;28;20475;-74
2021/05/16 01:41:40;;;;;;;5.57;2.38;;;;;;;;;;5014768;28;20034;-75
2021/05/16 01:44:10;;;;;;;5.88;2.00;;;;;;;;;;5015715;28;20044;-74
2021/05/16 01:46:36;;;;;;;2.85;1.80;;;;;;;;;;5015576;28;20041;-75
2021/05/16 01:49:01;;;;;;;7.07;2.03;;;;;;;;;;5015661;28;20452;-75
2021/05/16 01:51:29;;;;;;;4.40;2.10;;;;;;;;;;5015772;28;20048;-75
2021/05/16 01:53:54;;;;;;;2.42;1.67;;;;;;;;;;5015415;28;20033;-75
2021/05/16 01:56:31;;;;;;;4.70;2.13;;;;;;;;;;5015633;28;20044;-75
2021/05/16 01:58:57;;;;;;;6.43;1.98;;;;;;;;;;5008207;28;20479;-75
2021/05/16 02:01:24;;;;;;;2.47;1.75;;;;;;;;;;5015216;28;20551;-75
2021/05/16 02:03:54;;;;;;;5.13;2.03;;;;;;;;;;5015427;28;20029;-75
2021/05/16 02:06:21;;;;;;;2.47;1.80;;;;;;;;;;5031148;28;20033;-75
2021/05/16 02:08:49;;;;;;;3.15;1.98;;;;;;;;;;5035020;28;20034;-75
2021/05/16 02:11:25;;;;;;;3.53;2.00;;;;;;;;;;5017343;28;20498;-74
2021/05/16 02:13:56;;;;;;;4.85;1.70;;;;;;;;;;5017023;28;20029;-75
2021/05/16 02:16:22;;;;;;;6.28;2.38;;;;;;;;;;5035349;28;20587;-75
2021/05/16 02:18:53;;;;;;;3.65;1.88;;;;;;;;;;5034856;28;20124;-75
2021/05/16 02:21:29;;;;;;;3.95;2.20;;;;;;;;;;5016840;28;20030;-75
2021/05/16 02:23:54;;;;;;;4.03;1.90;;;;;;;;;;5034946;28;20120;-75
2021/05/16 02:26:29;;;;;;;3.90;2.10;;;;;;;;;;5034965;28;20029;-75
2021/05/16 02:28:54;;;;;;;7.78;2.03;;;;;;;;;;5017223;28;20049;-75
2021/05/16 02:31:20;;;;;;;3.60;1.73;;;;;;;;;;5034818;28;20475;-75
2021/05/16 02:33:49;;;;;;;4.63;1.75;;;;;;;;;;5032288;28;20073;-75
2021/05/16 02:36:15;;;;;;;2.78;1.83;;;;;;;;;;5036556;28;20044;-75
2021/05/16 02:38:43;;;;;;;6.70;1.95;;;;;;;;;;5036611;28;20467;-75
2021/05/16 02:41:09;;;;;;;2.10;1.45;;;;;;;;;;5036754;28;20033;-75
2021/05/16 02:43:35;;;;;;;2.50;1.60;;;;;;;;;;5054416;28;20043;-75
2021/05/16 02:46:00;;;;;;;3.22;1.83;;;;;;;;;;5036449;28;20119;-75
2021/05/16 02:48:27;;;;;;;3.33;1.50;;;;;;;;;;5036198;28;20040;-75
2021/05/16 02:50:53;;;;;;;3.17;1.45;;;;;;;;;;5036102;28;20412;-75
2021/05/16 02:53:25;;;;;;;4.10;1.90;;;;;;;;;;5036377;28;20079;-75
2021/05/16 02:55:58;;;;;;;4.72;1.75;;;;;;;;;;5053233;28;20033;-75
2021/05/16 02:58:23;;;;;;;9.82;2.15;;;;;;;;;;5019926;28;20040;-75
2021/05/16 03:00:53;;;;;;;10.35;1.92;;;;;;;;;;5053233;28;20093;-75
2021/05/16 03:03:19;;;;;;;6.95;1.67;;;;;;;;;;5035964;28;20041;-75
2021/05/16 03:05:47;;;;;;;2.42;1.40;;;;;;;;;;5035410;28;20193;-75
2021/05/16 03:08:13;;;;;;;2.92;1.40;;;;;;;;;;5053820;28;20497;-75
2021/05/16 03:10:41;;;;;;;3.45;1.70;;;;;;;;;;5053747;28;20384;-75
2021/05/16 03:13:07;;;;;;;4.97;1.52;;;;;;;;;;5053613;28;20040;-75
2021/05/16 03:15:33;;;;;;;6.75;1.67;;;;;;;;;;5052928;28;20033;-75
2021/05/16 03:17:59;;;;;;;3.58;1.65;;;;;;;;;;5035907;28;20033;-75
2021/05/16 03:20:26;;;;;;;4.57;2.13;;;;;;;;;;5035850;28;20033;-76
2021/05/16 03:22:52;;;;;;;8.38;3.10;;;;;;;;;;5053725;28;20471;-75
2021/05/16 03:25:18;;;;;;;2.00;1.45;;;;;;;;;;5035812;28;20352;-75
2021/05/16 03:27:44;;;;;;;6.53;2.03;;;;;;;;;;5053426;28;20036;-75
2021/05/16 03:30:11;;;;;;;4.10;1.30;;;;;;;;;;5053071;28;20029;-75
2021/05/16 03:32:39;;;;;;;2.65;1.73;;;;;;;;;;5053045;28;20049;-75
2021/05/16 03:35:05;;;;;;;4.40;1.65;;;;;;;;;;5052822;28;20032;-75
2021/05/16 03:37:31;;;;;;;6.40;1.85;;;;;;;;;;5053479;28;20116;-75
2021/05/16 03:39:56;;;;;;;3.55;1.73;;;;;;;;;;5053502;28;20117;-75
2021/05/16 03:42:22;;;;;;;4.20;1.48;;;;;;;;;;5052645;28;20068;-75
2021/05/16 03:44:47;;;;;;;2.75;1.80;;;;;;;;;;5053034;28;20025;-75
2021/05/16 03:47:13;;;;;;;5.57;1.33;;;;;;;;;;5053130;28;20087;-75
2021/05/16 03:49:38;;;;;;;7.55;1.50;;;;;;;;;;5053196;28;20037;-75
2021/05/16 03:52:04;;;;;;;5.55;1.80;;;;;;;;;;5053210;28;20395;-75
2021/05/16 03:54:30;;;;;;;4.00;1.50;;;;;;;;;;5035194;28;20127;-74
2021/05/16 03:56:55;;;;;;;6.07;1.80;;;;;;;;;;5052063;28;20052;-75
2021/05/16 03:59:20;;;;;;;3.50;1.50;;;;;;;;;;5052807;28;20033;-75
2021/05/16 04:01:46;;;;;;;7.22;1.70;;;;;;;;;;5053093;28;20052;-75
2021/05/16 04:04:11;;;;;;;3.63;2.25;;;;;;;;;;5035038;28;20090;-75
2021/05/16 04:06:37;;;;;;;4.28;1.80;;;;;;;;;;5059171;28;20082;-75
2021/05/16 04:09:02;;;;;;;7.75;1.83;;;;;;;;;;5059639;28;20049;-75
2021/05/16 04:11:28;;;;;;;3.97;1.85;;;;;;;;;;5059455;28;20033;-75
2021/05/16 04:13:53;;;;;;;6.28;1.70;;;;;;;;;;5059613;28;20473;-75
2021/05/16 04:16:19;;;;;;;8.88;2.35;;;;;;;;;;5059659;28;20048;-75
2021/05/16 04:18:44;;;;;;;3.80;1.17;;;;;;;;;;5058756;28;20079;-75
2021/05/16 04:21:09;;;;;;;3.67;1.67;;;;;;;;;;5041556;28;20119;-75
2021/05/16 04:23:35;;;;;;;3.67;1.90;;;;;;;;;;5059707;28;20090;-75
2021/05/16 04:26:01;;;;;;;5.40;1.65;;;;;;;;;;5059565;28;20098;-75
2021/05/16 04:28:27;;;;;;;6.07;1.70;;;;;;;;;;5041191;28;20490;-75
2021/05/16 04:30:52;;;;;;;4.93;1.70;;;;;;;;;;5059666;28;20503;-74
2021/05/16 04:33:18;;;;;;;4.50;1.45;;;;;;;;;;5059444;28;20053;-75
2021/05/16 04:35:43;;;;;;;4.35;1.58;;;;;;;;;;5059288;28;20033;-75
2021/05/16 04:38:09;;;;;;;10.23;2.58;;;;;;;;;;5059475;28;20036;-75
2021/05/16 04:40:34;;;;;;;5.80;1.75;;;;;;;;;;5058516;28;20021;-75
2021/05/16 04:42:59;;;;;;;6.90;1.70;;;;;;;;;;5059334;28;20399;-75
2021/05/16 04:45:25;;;;;;;10.02;2.05;;;;;;;;;;5059386;28;20037;-75
2021/05/16 04:47:51;;;;;;;4.70;1.77;;;;;;;;;;5059496;28;20379;-75
2021/05/16 04:50:18;;;;;;;13.50;2.22;;;;;;;;;;5059440;28;20119;-75
2021/05/16 04:52:44;;;;;;;7.63;1.83;;;;;;;;;;5059389;28;20060;-75
2021/05/16 04:55:11;;;;;;;9.23;2.13;;;;;;;;;;5041194;28;20055;-75
2021/05/16 04:57:37;;;;;;;9.13;2.42;;;;;;;;;;5059151;28;20629;-75
2021/05/16 05:00:04;;;;;;;10.38;2.10;;;;;;;;;;5059232;28;20037;-74
2021/05/16 05:02:30;;;;;;;8.32;2.05;;;;;;;;;;5059231;28;20403;-75
2021/05/16 05:04:55;;;;;;;9.45;1.77;;;;;;;;;;5059359;28;20041;-75
2021/05/16 05:07:21;;;;;;;12.65;2.40;;;;;;;;;;5059197;28;20076;-75
2021/05/16 05:09:46;;;;;;;7.07;1.85;;;;;;;;;;5024407;28;20033;-75
2021/05/16 05:12:12;;;;;;;10.45;1.90;;;;;;;;;;5058989;28;20497;-75
2021/05/16 05:14:37;;;;;;;6.90;2.20;;;;;;;;;;5057906;28;20375;-74
2021/05/16 05:17:03;;;;;;;13.43;2.30;;;;;;;;;;5055829;28;20071;-75
2021/05/16 05:19:28;;;;;;;9.82;2.13;;;;;;;;;;5056136;28;20040;-75
2021/05/16 05:21:54;;;;;;;11.85;1.73;;;;;;;;;;5038164;28;20033;-75
2021/05/16 05:24:19;;;;;;;5.93;1.90;;;;;;;;;;5055814;28;20505;-74
2021/05/16 05:26:44;;;;;;;10.10;2.20;;;;;;;;;;5055748;28;20041;-75
2021/05/16 05:29:10;;;;;;;5.25;1.83;;;;;;;;;;5055539;28;20039;-75
2021/05/16 05:31:35;;;;;;;9.20;2.17;;;;;;;;;;5037867;28;20470;-75
2021/05/16 05:34:01;;;;;;;13.02;2.30;;;;;;;;;;5037914;28;20059;-75
2021/05/16 05:36:29;;;;;;;8.68;1.95;;;;;;;;;;5037730;28;20128;-75
2021/05/16 05:38:56;;;;;;;7.45;1.67;;;;;;;;;;5055481;28;20041;-75
2021/05/16 05:41:22;;;;;;;7.63;1.92;;;;;;;;;;5054550;28;20083;-76
2021/05/16 05:43:47;;;;;;;7.22;1.60;;;;;;;;;;5056082;28;20041;-75
2021/05/16 05:46:13;;;;;;;4.65;1.60;;;;;;;;;;5038622;28;20487;-75
2021/05/16 05:48:38;;;;;;;10.93;1.88;;;;;;;;;;5055466;28;20037;-75
2021/05/16 05:51:04;;;;;;;4.18;1.42;;;;;;;;;;5055738;28;20044;-76
2021/05/16 05:53:30;;;;;;;8.73;1.90;;;;;;;;;;5055442;28;20036;-77
2021/05/16 05:55:55;;;;;;;4.90;1.40;;;;;;;;;;5055549;28;20103;-78
2021/05/16 05:58:20;;;;;;;10.18;1.85;;;;;;;;;;5055586;28;20395;-77
2021/05/16 06:00:46;;;;;;;8.93;2.28;;;;;;;;;;5055146;28;20033;-77
2021/05/16 06:03:11;;;;;;;12.15;1.90;;;;;;;;;;5021000;28;20040;-77
2021/05/16 06:05:37;;;;;;;7.45;2.25;;;;;;;;;;5037416;28;20041;-77
2021/05/16 06:08:03;;;;;;;9.18;2.20;;;;;;;;;;5054305;28;20059;-77
2021/05/16 06:10:28;;;;;;;8.23;2.22;;;;;;;;;;5054253;28;20029;-77
2021/05/16 06:12:54;;;;;;;14.50;2.47;;;;;;;;;;5055105;28;20055;-77
2021/05/16 06:15:22;;;;;;;13.48;3.45;;;;;;;;;;5037227;28;20040;-77
2021/05/16 06:17:48;;;;;;;12.75;2.40;;;;;;;;;;5037201;28;20406;-77
2021/05/16 06:20:14;;;;;;;12.43;2.47;;;;;;;;;;5055133;28;20025;-77
2021/05/16 06:22:39;;;;;;;11.23;2.30;;;;;;;;;;5055221;28;20098;-77
2021/05/16 06:25:06;;;;;;;9.18;2.55;;;;;;;;;;5037357;28;20391;-76
2021/05/16 06:27:31;;;;;;;8.77;1.90;;;;;;;;;;5036513;28;20052;-77
2021/05/16 06:29:57;;;;;;;11.65;2.45;;;;;;;;;;5054679;28;20036;-75
2021/05/16 06:32:22;;;;;;;7.47;1.90;;;;;;;;;;5054600;28;20041;-77
2021/05/16 06:34:48;;;;;;;11.00;2.03;;;;;;;;;;5037096;28;20037;-77
2021/05/16 06:37:13;;;;;;;10.13;1.92;;;;;;;;;;5037792;28;20033;-77
2021/05/16 06:39:38;;;;;;;8.50;1.92;;;;;;;;;;5036353;28;20138;-77
2021/05/16 06:42:05;;;;;;;12.05;2.42;;;;;;;;;;5053611;28;20036;-77
2021/05/16 06:44:30;;;;;;;11.65;2.38;;;;;;;;;;5054556;28;20025;-76
2021/05/16 06:46:56;;;;;;;10.23;2.97;;;;;;;;;;5054303;28;20086;-76
2021/05/16 06:49:21;;;;;;;14.32;2.95;;;;;;;;;;5054068;28;20175;-77
2021/05/16 06:51:47;;;;;;;11.38;2.67;;;;;;;;;;5054251;28;20041;-76
2021/05/16 06:54:12;;;;;;;7.80;2.00;;;;;;;;;;5036098;28;20044;-76
2021/05/16 06:56:38;;;;;;;8.75;1.73;;;;;;;;;;5036321;28;20032;-76
2021/05/16 06:59:04;;;;;;;14.30;2.10;;;;;;;;;;5053972;28;20581;-76
2021/05/16 07:01:30;;;;;;;7.95;2.25;;;;;;;;;;5036398;28;20471;-75
2021/05/16 07:03:55;;;;;;;4.75;1.92;;;;;;;;;;5035728;28;20045;-74
2021/05/16 07:06:21;;;;;;;10.70;2.30;;;;;;;;;;5053942;28;20505;-75
2021/05/16 07:08:47;;;;;;;8.18;2.40;;;;;;;;;;5053079;28;20469;-74
2021/05/16 07:11:13;;;;;;;6.75;2.03;;;;;;;;;;5053717;28;20467;-75
2021/05/16 07:13:39;;;;;;;11.48;2.63;;;;;;;;;;5053628;28;20037;-75
2021/05/16 07:16:04;;;;;;;8.77;2.38;;;;;;;;;;5052816;28;20029;-75
2021/05/16 07:18:30;;;;;;;10.20;2.17;;;;;;;;;;5053661;28;20040;-75
2021/05/16 07:20:55;;;;;;;8.85;2.22;;;;;;;;;;5053473;28;20098;-75
2021/05/16 07:23:20;;;;;;;10.43;1.95;;;;;;;;;;5053568;28;20048;-75
2021/05/16 07:25:46;;;;;;;11.70;2.58;;;;;;;;;;5052870;28;20106;-75
2021/05/16 07:28:12;;;;;;;6.55;1.92;;;;;;;;;;5053405;28;20036;-75
2021/05/16 07:30:37;;;;;;;6.60;1.98;;;;;;;;;;5053311;28;20033;-75
2021/05/16 07:33:03;;;;;;;9.65;2.53;;;;;;;;;;5053605;28;20490;-74
2021/05/16 07:35:28;;;;;;;9.48;2.08;;;;;;;;;;5053658;28;20115;-77
2021/05/16 07:37:54;;;;;;;9.02;2.22;;;;;;;;;;5053174;28;20462;-76
2021/05/16 07:40:20;;;;;;;8.48;1.70;;;;;;;;;;5052127;28;20033;-75
2021/05/16 07:42:45;;;;;;;7.03;2.30;;;;;;;;;;5052695;28;20025;-75
2021/05/16 07:45:12;;;;;;;10.68;1.98;;;;;;;;;;5035241;28;20518;-75
2021/05/16 07:47:38;;;;;;;9.50;2.30;;;;;;;;;;5053277;28;20429;-73
2021/05/16 07:50:06;;;;;;;6.10;1.73;;;;;;;;;;5053289;28;20044;-74
2021/05/16 07:52:32;;;;;;;7.22;1.95;;;;;;;;;;5035209;28;20033;-77
2021/05/16 07:54:57;;;;;;;7.30;2.03;;;;;;;;;;5035793;28;20051;-75
2021/05/16 07:57:23;;;;;;;7.78;2.80;;;;;;;;;;5053401;28;20037;-75
2021/05/16 07:59:48;;;;;;;10.18;2.22;;;;;;;;;;5035635;28;20103;-75
2021/05/16 08:02:13;;;;;;;9.77;2.53;;;;;;;;;;5053165;28;20041;-75
2021/05/16 08:04:39;;;;;;;11.85;2.28;;;;;;;;;;5053348;28;20072;-74
2021/05/16 08:07:04;;;;;;;12.90;2.08;;;;;;;;;;5053139;28;20055;-75
2021/05/16 08:09:30;;;;;;;8.45;2.28;;;;;;;;;;5035091;28;20075;-74
2021/05/16 08:11:55;;;;;;;7.65;2.33;;;;;;;;;;5052452;28;20036;-74
2021/05/16 08:14:21;;;;;;;8.13;2.20;;;;;;;;;;5034632;28;20063;-74
2021/05/16 08:16:46;;;;;;;10.27;3.33;;;;;;;;;;5052766;28;20039;-74
2021/05/16 08:19:12;;;;;;;8.85;2.63;;;;;;;;;;5053179;28;20025;-75
2021/05/16 08:21:38;;;;;;;9.55;2.25;;;;;;;;;;5052990;28;20406;-75
2021/05/16 08:24:05;;;;;;;6.95;2.05;;;;;;;;;;5051738;28;20037;-74
2021/05/16 08:26:31;;;;;;;6.72;1.60;;;;;;;;;;5034093;28;20078;-74
2021/05/16 08:28:57;;;;;;;11.40;2.45;;;;;;;;;;5052856;28;20037;-74
2021/05/16 08:31:22;;;;;;;6.53;2.15;;;;;;;;;;5052841;28;20419;-74
2021/05/16 08:33:48;;;;;;;6.60;2.22;;;;;;;;;;5034811;28;20052;-74
2021/05/16 08:36:14;;;;;;;6.03;1.70;;;;;;;;;;5052602;28;20028;-74
2021/05/16 08:38:39;;;;;;;5.88;2.40;;;;;;;;;;5034748;28;20033;-74
2021/05/16 08:41:04;;;;;;;12.63;3.55;;;;;;;;;;5034899;28;20037;-74
2021/05/16 08:43:30;;;;;;;8.23;2.45;;;;;;;;;;5052933;28;20094;-75
2021/05/16 08:45:55;;;;;;;11.98;2.22;;;;;;;;;;5052742;28;20094;-74
2021/05/16 08:48:21;;;;;;;11.15;3.38;;;;;;;;;;5052362;28;20041;-75
2021/05/16 08:50:47;;;;;;;7.72;2.75;;;;;;;;;;5035313;28;20124;-74
2021/05/16 08:53:12;;;;;;;9.82;5.03;;;;;;;;;;5037392;28;20102;-74
2021/05/16 08:55:38;;;;;;;10.23;3.28;;;;;;;;;;5055541;28;20437;-75
2021/05/16 08:58:04;;;;;;;9.10;2.58;;;;;;;;;;5057014;28;20033;-75
2021/05/16 09:00:32;;;;;;;9.07;1.83;;;;;;;;;;5023306;28;20056;-76
2021/05/16 09:02:58;;;;;;;12.57;2.95;;;;;;;;;;5058511;28;20112;-76
2021/05/16 09:05:25;;;;;;;3.88;1.63;;;;;;;;;;5056889;28;20032;-75
2021/05/16 09:08:08;;;;;;;8.00;2.00;;;;;;;;;;5038346;28;20064;-73
2021/05/16 09:10:34;;;;;;;8.43;2.22;;;;;;;;;;5055924;28;20040;-73
2021/05/16 09:13:06;;;;;;;11.50;2.22;;;;;;;;;;5056114;28;20028;-73
2021/05/16 09:15:32;;;;;;;15.35;2.75;;;;;;;;;;5056075;28;20033;-74
2021/05/16 09:17:58;;;;;;;6.57;1.67;;;;;;;;;;5055673;28;20087;-74
2021/05/16 09:20:24;;;;;;;9.45;2.20;;;;;;;;;;5055928;28;20086;-73
2021/05/16 09:22:54;;;;;;;6.75;2.50;;;;;;;;;;5054884;28;20036;-73
2021/05/16 09:25:30;;;;;;;5.88;2.53;;;;;;;;;;5037984;28;20554;-74
2021/05/16 09:28:16;;;;;;;5.90;1.70;;;;;;;;;;5055502;28;20041;-73
2021/05/16 09:30:42;;;;;;;8.52;1.95;;;;;;;;;;5055667;28;20048;-72
2021/05/16 09:33:13;;;;;;;5.53;1.95;;;;;;;;;;5055846;28;20082;-73
2021/05/16 09:35:50;;;;;;;8.05;2.10;;;;;;;;;;5037929;28;20440;-74
2021/05/16 09:38:20;;;;;;;5.20;1.80;;;;;;;;;;5055383;28;20098;-74
2021/05/16 09:40:48;;;;;;;11.48;2.42;;;;;;;;;;5037131;28;20132;-74
2021/05/16 09:43:22;;;;;;;8.32;2.17;;;;;;;;;;5055415;28;20033;-74
2021/05/16 09:45:55;;;;;;;6.47;2.15;;;;;;;;;;5037889;28;20047;-74
2021/05/16 09:48:31;;;;;;;7.57;2.05;;;;;;;;;;5055171;28;20037;-74
2021/05/16 09:51:14;;;;;;;4.80;1.80;;;;;;;;;;5055496;28;20084;-74
2021/05/16 09:53:56;;;;;;;15.27;2.10;;;;;;;;;;5055022;28;20486;-73
2021/05/16 09:56:31;;;;;;;10.40;2.28;;;;;;;;;;5055305;28;20041;-73
2021/05/16 09:59:00;;;;;;;9.27;3.38;;;;;;;;;;5055159;28;20395;-73
2021/05/16 10:01:27;;;;;;;10.43;2.45;;;;;;;;;;5054609;28;20459;-73
2021/05/16 10:03:54;;;;;;;9.15;2.20;;;;;;;;;;5060791;28;20068;-73
2021/05/16 10:06:21;;;;;;;12.18;2.17;;;;;;;;;;5057259;28;20029;-75
2021/05/16 10:08:48;;;;;;;11.65;2.17;;;;;;;;;;5055836;28;20029;-74
2021/05/16 10:11:29;;;;;;;9.35;2.88;;;;;;;;;;5056192;28;20036;-74
2021/05/16 10:14:08;;;;;;;13.98;2.63;;;;;;;;;;5053592;28;20021;-74
2021/05/16 10:16:40;;;;;;;11.00;2.45;;;;;;;;;;5063427;28;20100;-74
2021/05/16 10:19:10;;;;;;;10.55;2.20;;;;;;;;;;5054000;28;20029;-74
2021/05/16 10:21:35;;;;;;;7.25;1.88;;;;;;;;;;5057411;28;20041;-74
2021/05/16 10:24:16;;;;;;;13.35;2.58;;;;;;;;;;5054819;28;20080;-75
2021/05/16 10:26:43;;;;;;;8.65;2.90;;;;;;;;;;5054637;28;20060;-75
2021/05/16 10:29:17;;;;;;;7.97;2.30;;;;;;;;;;5057075;28;20429;-75
2021/05/16 10:31:50;;;;;;;5.13;1.95;;;;;;;;;;5058973;28;20056;-76
2021/05/16 10:34:25;;;;;;;6.80;2.00;;;;;;;;;;5062621;28;20048;-76
2021/05/16 10:36:51;;;;;;;10.60;2.72;;;;;;;;;;5071114;28;20052;-76
2021/05/16 10:39:35;;;;;;;6.40;1.80;;;;;;;;;;5073980;28;20020;-74
2021/05/16 10:42:24;;;;;;;6.28;1.65;;;;;;;;;;5074621;28;20468;-75
2021/05/16 10:45:12;;;;;;;3.80;1.35;;;;;;;;;;5021582;28;20033;-75
2021/05/16 10:47:41;;;;;;;6.65;1.73;;;;;;;;;;5054251;28;20037;-78
2021/05/16 10:50:19;;;;;;;6.38;1.75;;;;;;;;;;5053848;28;20033;-74
2021/05/16 10:52:57;;;;;;;4.72;1.77;;;;;;;;;;5054357;28;20032;-74
2021/05/16 10:55:36;;;;;;;5.80;1.75;;;;;;;;;;5054255;28;20572;-74
2021/05/16 10:58:02;;;;;;;9.07;1.48;;;;;;;;;;5053728;28;20037;-73
2021/05/16 11:00:30;;;;;;;7.28;1.60;;;;;;;;;;5054193;28;20040;-76
2021/05/16 11:03:08;;;;;;;4.53;1.60;;;;;;;;;;5054036;28;20048;-76
2021/05/16 11:05:40;;;;;;;8.32;1.58;;;;;;;;;;5053853;28;20059;-76
2021/05/16 11:08:06;;;;;;;4.55;1.45;;;;;;;;;;5054112;28;20374;-75
2021/05/16 11:10:31;;;;;;;7.05;2.05;;;;;;;;;;5035844;28;20120;-75
2021/05/16 11:13:33;;;;;;;6.15;1.50;;;;;;;;;;5053167;28;20128;-75
2021/05/16 11:16:04;;;;;;;5.38;1.55;;;;;;;;;;5038521;28;20048;-73
2021/05/16 11:18:30;;;;;;;4.65;0.98;;;;;;;;;;5052667;28;20029;-73
2021/05/16 11:21:06;;;;;;;3.42;1.33;;;;;;;;;;5053543;28;20464;-73
2021/05/16 11:23:37;;;;;;;4.35;1.10;;;;;;;;;;5053785;28;20031;-73
2021/05/16 11:26:20;;;;;;;4.80;1.65;;;;;;;;;;5053566;28;20033;-73
2021/05/16 11:28:52;;;;;;;5.55;1.60;;;;;;;;;;5058210;28;20033;-77
2021/05/16 11:31:20;;;;;;;5.35;1.55;;;;;;;;;;5038849;28;20044;-76
2021/05/16 11:33:48;;;;;;;3.78;1.30;;;;;;;;;;5038365;28;20068;-76
2021/05/16 11:36:15;;;;;;;7.07;1.48;;;;;;;;;;5015910;28;20033;-76
2021/05/16 11:38:43;;;;;;;5.45;1.25;;;;;;;;;;5033904;28;20049;-76
2021/05/16 11:41:31;;;;;;;6.22;1.40;;;;;;;;;;5032728;28;20075;-74
2021/05/16 11:43:59;;;;;;;5.53;2.05;;;;;;;;;;5032995;28;20501;-74
2021/05/16 11:46:29;;;;;;;4.28;1.42;;;;;;;;;;5033408;28;20368;-75
2021/05/16 11:48:55;;;;;;;3.88;1.48;;;;;;;;;;5033479;28;20033;-74
2021/05/16 11:51:21;;;;;;;2.97;1.05;;;;;;;;;;5033315;28;20514;-74
2021/05/16 11:53:52;;;;;;;6.13;1.25;;;;;;;;;;5033376;28;20053;-74
2021/05/16 11:56:21;;;;;;;6.35;1.17;;;;;;;;;;5032846;28;20116;-74
2021/05/16 11:58:48;;;;;;;1.58;1.00;;;;;;;;;;5015508;28;20130;-74
2021/05/16 12:01:14;;;;;;;3.70;1.30;;;;;;;;;;5033198;28;20037;-74
2021/05/16 12:03:56;;;;;;;5.07;1.40;;;;;;;;;;5033220;28;20390;-73
2021/05/16 12:06:22;;;;;;;4.00;1.30;;;;;;;;;;5019828;28;20041;-74
2021/05/16 12:08:57;;;;;;;2.97;1.20;;;;;;;;;;5012690;28;20041;-75
2021/05/16 12:11:22;;;;;;;5.68;1.70;;;;;;;;;;5013203;28;20069;-74
2021/05/16 12:13:47;;;;;;;5.07;1.35;;;;;;;;;;5013206;28;20038;-74
2021/05/16 12:16:21;;;;;;;4.43;1.20;;;;;;;;;;5013384;28;20034;-75
2021/05/16 12:18:49;;;;;;;7.60;1.33;;;;;;;;;;4995893;28;20460;-75
2021/05/16 12:21:16;;;;;;;2.58;0.95;;;;;;;;;;5011791;28;20542;-75
2021/05/16 12:24:03;;;;;;;1.45;0.75;;;;;;;;;;5012736;28;20034;-75
2021/05/16 12:26:32;;;;;;;1.27;0.50;;;;;;;;;;5014722;28;20045;-75
2021/05/16 12:28:58;;;;;;;2.03;0.70;;;;;;;;;;5027163;28;20033;-75
2021/05/16 12:31:24;;;;;;;3.25;0.80;;;;;;;;;;5036573;28;20052;-75
2021/05/16 12:33:54;;;;;;;1.42;0.60;;;;;;;;;;5052363;28;20049;-75
2021/05/16 12:36:20;;;;;;;2.15;0.85;;;;;;;;;;5056731;28;20064;-75
2021/05/16 12:38:50;;;;;;;1.88;0.75;;;;;;;;;;5056775;28;20029;-75
2021/05/16 12:41:27;;;;;;;2.60;1.15;;;;;;;;;;5037894;28;20040;-75
2021/05/16 12:44:21;;;;;;;5.63;0.98;;;;;;;;;;5056356;28;20121;-75
2021/05/16 12:46:48;;;;;;;3.60;1.33;;;;;;;;;;5056677;28;20494;-75
2021/05/16 12:49:18;;;;;;;3.90;0.90;;;;;;;;;;5056116;28;20040;-75
2021/05/16 12:51:56;;;;;;;2.33;0.73;;;;;;;;;;5056625;28;20597;-75
2021/05/16 12:54:27;;;;;;;2.38;0.77;;;;;;;;;;5056529;28;20480;-75
2021/05/16 12:57:03;;;;;;;2.45;0.80;;;;;;;;;;5055529;28;20482;-74
2021/05/16 12:59:37;;;;;;;1.17;0.80;;;;;;;;;;5056603;28;20516;-75
2021/05/16 13:02:10;;;;;;;3.83;1.05;;;;;;;;;;5056263;28;20592;-75
2021/05/16 13:04:50;;;;;;;2.72;0.77;;;;;;;;;;5037894;28;20052;-75
2021/05/16 13:07:39;;;;;;;2.20;1.05;;;;;;;;;;5056091;28;20120;-75
2021/05/16 13:10:26;;;;;;;3.17;1.52;;;;;;;;;;5056038;28;20037;-75
2021/05/16 13:12:52;;;;;;;2.50;1.13;;;;;;;;;;5055762;28;20063;-76
2021/05/16 13:15:35;;;;;;;2.97;1.48;;;;;;;;;;5056009;28;20049;-75
2021/05/16 13:18:25;;;;;;;6.25;2.35;;;;;;;;;;5055968;28;20033;-76
2021/05/16 13:20:52;;;;;;;3.15;1.23;;;;;;;;;;5056192;28;20554;-76
2021/05/16 13:23:23;;;;;;;1.92;0.70;;;;;;;;;;5055151;28;20036;-76
2021/05/16 13:25:49;;;;;;;0.52;0.50;;;;;;;;;;5055709;28;20037;-76
2021/05/16 13:28:17;;;;;;;0.95;0.47;;;;;;;;;;5055469;28;20406;-74
2021/05/16 13:30:52;;;;;;;2.65;0.65;;;;;;;;;;5055618;28;20037;-76
2021/05/16 13:33:18;;;;;;;1.67;0.77;;;;;;;;;;5055836;28;20426;-76
2021/05/16 13:35:43;;;;;;;1.23;0.45;;;;;;;;;;5055741;28;20067;-75
2021/05/16 13:38:09;;;;;;;1.75;0.60;;;;;;;;;;5054767;28;20082;-76
2021/05/16 13:40:34;;;;;;;32.25;21.67;;;;;;;;;;5037559;28;20443;-74
2021/05/16 13:43:00;;;;;;;10.70;5.80;;;;;;;;;;5057061;28;20033;-74
2021/05/16 13:45:25;;;;;;;2.38;1.38;;;;;;;;;;5058918;28;20056;-74
2021/05/16 13:47:50;;;;;;;5.53;1.00;;;;;;;;;;5065743;28;20033;-75
2021/05/16 13:50:16;;;;;;;1.77;0.40;;;;;;;;;;5059314;28;20509;-75
2021/05/16 13:52:43;;;;;;;1.40;0.30;;;;;;;;;;5057763;28;20028;-74
2021/05/16 13:55:09;;;;;;;0.95;0.43;;;;;;;;;;5056930;28;20032;-75
2021/05/16 13:57:34;;;;;;;1.17;0.55;;;;;;;;;;5075190;28;20036;-74
2021/05/16 13:59:59;;;;;;;2.33;0.60;;;;;;;;;;5075396;28;20047;-75
2021/05/16 14:02:25;;;;;;;0.85;0.40;;;;;;;;;;5075174;28;20123;-75
2021/05/16 14:04:50;;;;;;;1.85;1.20;;;;;;;;;;5075234;28;20040;-75
2021/05/16 14:07:16;;;;;;;0.40;0.32;;;;;;;;;;5074976;28;20039;-75
2021/05/16 14:09:41;;;;;;;4.15;1.85;;;;;;;;;;5064729;28;20037;-75
2021/05/16 14:12:07;;;;;;;0.85;0.57;;;;;;;;;;5054144;28;20047;-76
2021/05/16 14:14:32;;;;;;;1.05;0.30;;;;;;;;;;5054835;28;20113;-76
2021/05/16 14:16:57;;;;;;;0.35;0.32;;;;;;;;;;5054788;28;20549;-76
2021/05/16 14:19:23;;;;;;;0.60;0.52;;;;;;;;;;5037185;28;20033;-76
2021/05/16 14:21:48;;;;;;;0.20;0.20;;;;;;;;;;5054800;28;20087;-76
2021/05/16 14:24:14;;;;;;;0.57;0.40;;;;;;;;;;5054665;28;20048;-76
2021/05/16 14:26:39;;;;;;;3.65;0.38;;;;;;;;;;5053890;28;20084;-76
2021/05/16 14:29:04;;;;;;;0.30;0.20;;;;;;;;;;5054628;28;20075;-72
2021/05/16 14:31:30;;;;;;;0.57;0.30;;;;;;;;;;5054593;28;20025;-75
2021/05/16 14:33:55;;;;;;;1.55;0.55;;;;;;;;;;5054429;28;20065;-74
2021/05/16 14:36:21;;;;;;;0.55;0.30;;;;;;;;;;5054544;28;20029;-75
2021/05/16 14:38:46;;;;;;;0.30;0.30;;;;;;;;;;5054362;28;20051;-75
2021/05/16 14:41:11;;;;;;;4.95;0.52;;;;;;;;;;5054112;28;20044;-75
2021/05/16 14:43:37;;;;;;;1.17;0.50;;;;;;;;;;5036667;28;20033;-74
2021/05/16 14:46:08;;;;;;;0.82;0.35;;;;;;;;;;5036603;28;20032;-76